sensor_id;sensor_type;location;lat;lon;timestamp;P1;durP1;ratioP1;P2;durP2;ratioP2
13173;SDS011;6652;48.802;9.190;2023-04-05T00:02:17;11.23;;;6.00;;
13173;SDS011;6652;48.802;9.190;2023-04-05T00:04:45;13.90;;;5.70;;
13173;SDS011;6652;48.802;9.190;2023-04-05T00:07:16;13.57;;;6.00;;
13173;SDS011;6652;48.802;9.190;2023-04-05T00:09:46;13.00;;;6.63;;
13173;SDS011;6652;48.802;9.190;2023-04-05T00:12:15;15.45;;;6.70;;
13173;SDS011;6652;48.802;9.190;2023-04-05T00:14:43;11.05;;;5.90;;
13173;SDS011;6652;48.802;9.190;2023-04-05T00:17:10;11.00;;;6.05;;
13173;SDS011;6652;48.802;9.190;2023-04-05T00:19:37;15.93;;;6.05;;
13173;SDS011;6652;48.802;9.190;2023-04-05T00:22:04;11.15;;;6.15;;
13173;SDS011;6652;48.802;9.190;2023-04-05T00:24:35;12.80;;;6.65;;
13173;SDS011;6652;48.802;9.190;2023-04-05T00:27:07;17.20;;;6.93;;
13173;SDS011;6652;48.802;9.190;2023-04-05T00:29:34;8.57;;;5.65;;
13173;SDS011;6652;48.802;9.190;2023-04-05T00:32:02;12.93;;;6.65;;
13173;SDS011;6652;48.802;9.190;2023-04-05T00:34:29;10.77;;;6.45;;
13173;SDS011;6652;48.802;9.190;2023-04-05T00:36:57;8.18;;;5.70;;
13173;SDS011;6652;48.802;9.190;2023-04-05T00:39:24;15.18;;;6.05;;
13173;SDS011;6652;48.802;9.190;2023-04-05T00:41:51;11.57;;;6.20;;
13173;SDS011;6652;48.802;9.190;2023-04-05T00:44:18;10.77;;;5.80;;
13173;SDS011;6652;48.802;9.190;2023-04-05T00:46:45;11.38;;;5.90;;
13173;SDS011;6652;48.802;9.190;2023-04-05T00:49:13;14.32;;;6.55;;
13173;SDS011;6652;48.802;9.190;2023-04-05T00:51:40;14.70;;;5.45;;
13173;SDS011;6652;48.802;9.190;2023-04-05T00:54:08;12.05;;;6.40;;
13173;SDS011;6652;48.802;9.190;2023-04-05T00:56:35;13.65;;;6.63;;
13173;SDS011;6652;48.802;9.190;2023-04-05T00:59:04;9.15;;;5.60;;
13173;SDS011;6652;48.802;9.190;2023-04-05T01:01:30;10.15;;;5.78;;
13173;SDS011;6652;48.802;9.190;2023-04-05T01:04:02;10.07;;;5.95;;
13173;SDS011;6652;48.802;9.190;2023-04-05T01:09:27;13.52;;;6.57;;
13173;SDS011;6652;48.802;9.190;2023-04-05T01:12:03;13.10;;;5.97;;
13173;SDS011;6652;48.802;9.190;2023-04-05T01:14:32;13.05;;;6.00;;
13173;SDS011;6652;48.802;9.190;2023-04-05T01:17:09;12.55;;;5.60;;
13173;SDS011;6652;48.802;9.190;2023-04-05T01:19:36;15.18;;;6.15;;
13173;SDS011;6652;48.802;9.190;2023-04-05T01:28:39;10.85;;;5.25;;
13173;SDS011;6652;48.802;9.190;2023-04-05T01:31:25;15.95;;;6.20;;
13173;SDS011;6652;48.802;9.190;2023-04-05T01:33:58;10.25;;;5.32;;
13173;SDS011;6652;48.802;9.190;2023-04-05T01:36:32;11.35;;;6.07;;
13173;SDS011;6652;48.802;9.190;2023-04-05T01:39:05;9.30;;;5.40;;
13173;SDS011;6652;48.802;9.190;2023-04-05T01:41:34;10.25;;;5.63;;
13173;SDS011;6652;48.802;9.190;2023-04-05T01:44:01;9.95;;;5.82;;
13173;SDS011;6652;48.802;9.190;2023-04-05T01:46:29;12.15;;;5.75;;
13173;SDS011;6652;48.802;9.190;2023-04-05T01:48:56;10.13;;;5.78;;
13173;SDS011;6652;48.802;9.190;2023-04-05T01:51:23;12.90;;;6.22;;
13173;SDS011;6652;48.802;9.190;2023-04-05T01:53:50;11.75;;;6.32;;
13173;SDS011;6652;48.802;9.190;2023-04-05T01:56:17;11.95;;;5.97;;
13173;SDS011;6652;48.802;9.190;2023-04-05T01:58:44;12.63;;;5.75;;
13173;SDS011;6652;48.802;9.190;2023-04-05T02:01:11;9.90;;;5.85;;
13173;SDS011;6652;48.802;9.190;2023-04-05T02:03:39;16.45;;;5.88;;
13173;SDS011;6652;48.802;9.190;2023-04-05T02:06:06;11.25;;;6.70;;
13173;SDS011;6652;48.802;9.190;2023-04-05T02:08:34;10.93;;;5.82;;
13173;SDS011;6652;48.802;9.190;2023-04-05T02:11:00;13.80;;;6.70;;
13173;SDS011;6652;48.802;9.190;2023-04-05T02:13:27;13.20;;;6.03;;
13173;SDS011;6652;48.802;9.190;2023-04-05T02:15:54;12.75;;;6.28;;
13173;SDS011;6652;48.802;9.190;2023-04-05T02:18:21;13.18;;;6.13;;
13173;SDS011;6652;48.802;9.190;2023-04-05T02:20:59;10.82;;;6.15;;
13173;SDS011;6652;48.802;9.190;2023-04-05T02:23:26;10.77;;;6.20;;
13173;SDS011;6652;48.802;9.190;2023-04-05T02:25:54;13.73;;;6.47;;
13173;SDS011;6652;48.802;9.190;2023-04-05T02:28:21;14.07;;;6.57;;
13173;SDS011;6652;48.802;9.190;2023-04-05T02:30:48;10.57;;;6.35;;
13173;SDS011;6652;48.802;9.190;2023-04-05T02:33:15;14.98;;;6.13;;
13173;SDS011;6652;48.802;9.190;2023-04-05T02:35:41;9.05;;;5.40;;
13173;SDS011;6652;48.802;9.190;2023-04-05T02:38:09;11.57;;;5.93;;
13173;SDS011;6652;48.802;9.190;2023-04-05T02:40:36;11.77;;;6.05;;
13173;SDS011;6652;48.802;9.190;2023-04-05T02:43:05;11.23;;;6.13;;
13173;SDS011;6652;48.802;9.190;2023-04-05T02:45:32;11.93;;;6.38;;
13173;SDS011;6652;48.802;9.190;2023-04-05T02:47:59;13.75;;;6.60;;
13173;SDS011;6652;48.802;9.190;2023-04-05T02:50:26;13.77;;;6.20;;
13173;SDS011;6652;48.802;9.190;2023-04-05T02:52:53;11.75;;;6.20;;
13173;SDS011;6652;48.802;9.190;2023-04-05T02:55:21;13.90;;;6.18;;
13173;SDS011;6652;48.802;9.190;2023-04-05T02:57:48;13.93;;;6.13;;
13173;SDS011;6652;48.802;9.190;2023-04-05T03:00:15;13.82;;;6.10;;
13173;SDS011;6652;48.802;9.190;2023-04-05T03:02:43;11.25;;;6.68;;
13173;SDS011;6652;48.802;9.190;2023-04-05T03:05:10;8.25;;;5.88;;
13173;SDS011;6652;48.802;9.190;2023-04-05T03:07:38;11.70;;;6.68;;
13173;SDS011;6652;48.802;9.190;2023-04-05T03:10:07;15.73;;;6.47;;
13173;SDS011;6652;48.802;9.190;2023-04-05T03:12:35;14.85;;;6.55;;
13173;SDS011;6652;48.802;9.190;2023-04-05T03:15:02;12.40;;;5.70;;
13173;SDS011;6652;48.802;9.190;2023-04-05T03:17:30;16.25;;;6.32;;
13173;SDS011;6652;48.802;9.190;2023-04-05T03:19:57;12.23;;;7.13;;
13173;SDS011;6652;48.802;9.190;2023-04-05T03:22:24;10.02;;;6.70;;
13173;SDS011;6652;48.802;9.190;2023-04-05T03:24:52;13.30;;;6.32;;
13173;SDS011;6652;48.802;9.190;2023-04-05T03:27:19;15.55;;;6.78;;
13173;SDS011;6652;48.802;9.190;2023-04-05T03:29:47;15.27;;;6.03;;
13173;SDS011;6652;48.802;9.190;2023-04-05T03:32:14;12.57;;;6.70;;
13173;SDS011;6652;48.802;9.190;2023-04-05T03:34:41;14.25;;;6.35;;
13173;SDS011;6652;48.802;9.190;2023-04-05T03:37:08;10.68;;;6.35;;
13173;SDS011;6652;48.802;9.190;2023-04-05T03:39:35;9.48;;;6.28;;
13173;SDS011;6652;48.802;9.190;2023-04-05T03:42:01;13.75;;;6.78;;
13173;SDS011;6652;48.802;9.190;2023-04-05T03:44:28;16.63;;;6.55;;
13173;SDS011;6652;48.802;9.190;2023-04-05T03:46:57;17.70;;;6.50;;
13173;SDS011;6652;48.802;9.190;2023-04-05T03:49:23;12.05;;;6.70;;
13173;SDS011;6652;48.802;9.190;2023-04-05T03:51:50;16.38;;;6.10;;
13173;SDS011;6652;48.802;9.190;2023-04-05T03:54:17;11.18;;;6.32;;
13173;SDS011;6652;48.802;9.190;2023-04-05T03:56:44;16.33;;;6.85;;
13173;SDS011;6652;48.802;9.190;2023-04-05T03:59:10;14.90;;;6.57;;
13173;SDS011;6652;48.802;9.190;2023-04-05T04:01:37;15.88;;;6.85;;
13173;SDS011;6652;48.802;9.190;2023-04-05T04:04:07;13.50;;;6.50;;
13173;SDS011;6652;48.802;9.190;2023-04-05T04:06:34;12.85;;;7.57;;
13173;SDS011;6652;48.802;9.190;2023-04-05T04:09:01;18.85;;;7.35;;
13173;SDS011;6652;48.802;9.190;2023-04-05T04:11:29;12.43;;;7.63;;
13173;SDS011;6652;48.802;9.190;2023-04-05T04:13:56;14.13;;;6.82;;
13173;SDS011;6652;48.802;9.190;2023-04-05T04:16:23;14.05;;;7.60;;
13173;SDS011;6652;48.802;9.190;2023-04-05T04:18:50;15.13;;;6.38;;
13173;SDS011;6652;48.802;9.190;2023-04-05T04:21:19;12.73;;;6.97;;
13173;SDS011;6652;48.802;9.190;2023-04-05T04:23:48;16.15;;;7.35;;
13173;SDS011;6652;48.802;9.190;2023-04-05T04:26:15;17.75;;;7.47;;
13173;SDS011;6652;48.802;9.190;2023-04-05T04:28:50;14.90;;;7.70;;
13173;SDS011;6652;48.802;9.190;2023-04-05T04:31:17;13.57;;;7.50;;
13173;SDS011;6652;48.802;9.190;2023-04-05T04:33:45;16.05;;;7.32;;
13173;SDS011;6652;48.802;9.190;2023-04-05T04:36:12;14.10;;;7.18;;
13173;SDS011;6652;48.802;9.190;2023-04-05T04:38:41;16.10;;;7.38;;
13173;SDS011;6652;48.802;9.190;2023-04-05T04:41:08;14.52;;;8.15;;
13173;SDS011;6652;48.802;9.190;2023-04-05T04:43:36;15.43;;;7.85;;
13173;SDS011;6652;48.802;9.190;2023-04-05T04:46:07;20.65;;;7.13;;
13173;SDS011;6652;48.802;9.190;2023-04-05T04:48:39;17.60;;;7.90;;
13173;SDS011;6652;48.802;9.190;2023-04-05T04:51:07;19.77;;;7.47;;
13173;SDS011;6652;48.802;9.190;2023-04-05T04:53:33;16.92;;;7.22;;
13173;SDS011;6652;48.802;9.190;2023-04-05T04:56:04;20.00;;;7.80;;
13173;SDS011;6652;48.802;9.190;2023-04-05T04:58:31;20.95;;;8.05;;
13173;SDS011;6652;48.802;9.190;2023-04-05T05:00:58;19.75;;;8.32;;
13173;SDS011;6652;48.802;9.190;2023-04-05T05:03:25;21.65;;;8.60;;
13173;SDS011;6652;48.802;9.190;2023-04-05T05:05:52;12.57;;;6.95;;
13173;SDS011;6652;48.802;9.190;2023-04-05T05:08:18;14.60;;;6.93;;
13173;SDS011;6652;48.802;9.190;2023-04-05T05:10:49;17.58;;;8.38;;
13173;SDS011;6652;48.802;9.190;2023-04-05T05:13:17;22.17;;;7.38;;
13173;SDS011;6652;48.802;9.190;2023-04-05T05:15:44;16.05;;;7.57;;
13173;SDS011;6652;48.802;9.190;2023-04-05T05:18:12;14.18;;;7.50;;
13173;SDS011;6652;48.802;9.190;2023-04-05T05:20:40;16.25;;;6.95;;
13173;SDS011;6652;48.802;9.190;2023-04-05T05:23:06;11.18;;;6.32;;
13173;SDS011;6652;48.802;9.190;2023-04-05T05:25:33;13.00;;;7.10;;
13173;SDS011;6652;48.802;9.190;2023-04-05T05:28:00;14.07;;;6.50;;
13173;SDS011;6652;48.802;9.190;2023-04-05T05:30:28;11.57;;;6.10;;
13173;SDS011;6652;48.802;9.190;2023-04-05T05:32:55;13.65;;;6.38;;
13173;SDS011;6652;48.802;9.190;2023-04-05T05:35:22;17.40;;;6.55;;
13173;SDS011;6652;48.802;9.190;2023-04-05T05:37:49;12.32;;;6.45;;
13173;SDS011;6652;48.802;9.190;2023-04-05T05:40:16;13.73;;;6.03;;
13173;SDS011;6652;48.802;9.190;2023-04-05T05:42:43;18.80;;;6.82;;
13173;SDS011;6652;48.802;9.190;2023-04-05T05:45:10;11.05;;;6.43;;
13173;SDS011;6652;48.802;9.190;2023-04-05T05:47:39;11.95;;;6.22;;
13173;SDS011;6652;48.802;9.190;2023-04-05T05:50:06;11.32;;;6.68;;
13173;SDS011;6652;48.802;9.190;2023-04-05T05:52:34;12.35;;;6.30;;
13173;SDS011;6652;48.802;9.190;2023-04-05T05:55:01;13.32;;;5.95;;
13173;SDS011;6652;48.802;9.190;2023-04-05T05:57:28;16.70;;;6.55;;
13173;SDS011;6652;48.802;9.190;2023-04-05T05:59:55;14.02;;;6.28;;
13173;SDS011;6652;48.802;9.190;2023-04-05T06:02:21;17.42;;;7.20;;
13173;SDS011;6652;48.802;9.190;2023-04-05T06:04:49;22.05;;;6.82;;
13173;SDS011;6652;48.802;9.190;2023-04-05T06:07:16;13.52;;;6.65;;
13173;SDS011;6652;48.802;9.190;2023-04-05T06:09:43;12.25;;;6.72;;
13173;SDS011;6652;48.802;9.190;2023-04-05T06:12:11;13.25;;;6.40;;
13173;SDS011;6652;48.802;9.190;2023-04-05T06:14:38;12.65;;;6.78;;
13173;SDS011;6652;48.802;9.190;2023-04-05T06:17:05;15.10;;;7.68;;
13173;SDS011;6652;48.802;9.190;2023-04-05T06:19:31;13.07;;;6.70;;
13173;SDS011;6652;48.802;9.190;2023-04-05T06:22:00;16.27;;;6.65;;
13173;SDS011;6652;48.802;9.190;2023-04-05T06:24:26;19.20;;;8.23;;
13173;SDS011;6652;48.802;9.190;2023-04-05T06:26:55;17.35;;;8.38;;
13173;SDS011;6652;48.802;9.190;2023-04-05T06:29:22;16.92;;;9.38;;
13173;SDS011;6652;48.802;9.190;2023-04-05T06:31:50;13.70;;;8.00;;
13173;SDS011;6652;48.802;9.190;2023-04-05T06:34:16;17.48;;;8.95;;
13173;SDS011;6652;48.802;9.190;2023-04-05T06:36:43;11.20;;;7.40;;
13173;SDS011;6652;48.802;9.190;2023-04-05T06:39:11;13.20;;;7.55;;
13173;SDS011;6652;48.802;9.190;2023-04-05T06:41:38;20.90;;;7.45;;
13173;SDS011;6652;48.802;9.190;2023-04-05T06:44:05;12.30;;;6.93;;
13173;SDS011;6652;48.802;9.190;2023-04-05T06:46:32;12.90;;;7.50;;
13173;SDS011;6652;48.802;9.190;2023-04-05T06:48:59;16.15;;;7.25;;
13173;SDS011;6652;48.802;9.190;2023-04-05T06:51:25;13.40;;;7.75;;
13173;SDS011;6652;48.802;9.190;2023-04-05T06:53:53;18.88;;;7.38;;
13173;SDS011;6652;48.802;9.190;2023-04-05T06:56:21;13.05;;;7.20;;
13173;SDS011;6652;48.802;9.190;2023-04-05T06:58:48;15.13;;;7.40;;
13173;SDS011;6652;48.802;9.190;2023-04-05T07:01:15;15.32;;;8.00;;
13173;SDS011;6652;48.802;9.190;2023-04-05T07:03:42;13.75;;;7.53;;
13173;SDS011;6652;48.802;9.190;2023-04-05T07:06:09;24.48;;;8.30;;
13173;SDS011;6652;48.802;9.190;2023-04-05T07:08:36;11.82;;;7.05;;
13173;SDS011;6652;48.802;9.190;2023-04-05T07:11:03;16.85;;;7.35;;
13173;SDS011;6652;48.802;9.190;2023-04-05T07:13:32;11.98;;;7.03;;
13173;SDS011;6652;48.802;9.190;2023-04-05T07:15:59;14.35;;;6.88;;
13173;SDS011;6652;48.802;9.190;2023-04-05T07:18:26;12.30;;;7.20;;
13173;SDS011;6652;48.802;9.190;2023-04-05T07:20:55;17.08;;;8.23;;
13173;SDS011;6652;48.802;9.190;2023-04-05T07:23:26;11.32;;;6.35;;
13173;SDS011;6652;48.802;9.190;2023-04-05T07:25:53;12.10;;;6.88;;
13173;SDS011;6652;48.802;9.190;2023-04-05T07:28:22;18.80;;;6.68;;
13173;SDS011;6652;48.802;9.190;2023-04-05T07:30:50;17.35;;;6.30;;
13173;SDS011;6652;48.802;9.190;2023-04-05T07:33:17;7.75;;;5.80;;
13173;SDS011;6652;48.802;9.190;2023-04-05T07:35:45;14.10;;;5.95;;
13173;SDS011;6652;48.802;9.190;2023-04-05T07:38:18;15.73;;;6.17;;
13173;SDS011;6652;48.802;9.190;2023-04-05T07:40:46;10.73;;;5.95;;
13173;SDS011;6652;48.802;9.190;2023-04-05T07:43:13;15.68;;;7.00;;
13173;SDS011;6652;48.802;9.190;2023-04-05T07:45:40;11.77;;;6.78;;
13173;SDS011;6652;48.802;9.190;2023-04-05T07:48:08;13.75;;;6.88;;
13173;SDS011;6652;48.802;9.190;2023-04-05T07:50:35;9.52;;;6.18;;
13173;SDS011;6652;48.802;9.190;2023-04-05T07:53:04;12.52;;;5.88;;
13173;SDS011;6652;48.802;9.190;2023-04-05T07:55:32;11.35;;;7.35;;
13173;SDS011;6652;48.802;9.190;2023-04-05T07:57:59;15.25;;;6.13;;
13173;SDS011;6652;48.802;9.190;2023-04-05T08:00:25;11.15;;;6.97;;
13173;SDS011;6652;48.802;9.190;2023-04-05T08:02:52;13.50;;;6.93;;
13173;SDS011;6652;48.802;9.190;2023-04-05T08:05:20;14.52;;;7.13;;
13173;SDS011;6652;48.802;9.190;2023-04-05T08:07:47;13.55;;;6.60;;
13173;SDS011;6652;48.802;9.190;2023-04-05T08:10:14;12.55;;;6.97;;
13173;SDS011;6652;48.802;9.190;2023-04-05T08:12:41;12.43;;;6.70;;
13173;SDS011;6652;48.802;9.190;2023-04-05T08:15:08;9.90;;;6.50;;
13173;SDS011;6652;48.802;9.190;2023-04-05T08:17:35;14.70;;;6.28;;
13173;SDS011;6652;48.802;9.190;2023-04-05T08:20:02;11.50;;;5.90;;
13173;SDS011;6652;48.802;9.190;2023-04-05T08:22:31;8.80;;;5.97;;
13173;SDS011;6652;48.802;9.190;2023-04-05T08:24:58;12.35;;;6.68;;
13173;SDS011;6652;48.802;9.190;2023-04-05T08:27:25;11.50;;;6.20;;
13173;SDS011;6652;48.802;9.190;2023-04-05T08:29:51;15.55;;;6.07;;
13173;SDS011;6652;48.802;9.190;2023-04-05T08:32:18;14.25;;;5.60;;
13173;SDS011;6652;48.802;9.190;2023-04-05T08:34:45;10.32;;;5.80;;
13173;SDS011;6652;48.802;9.190;2023-04-05T08:37:12;11.13;;;6.25;;
13173;SDS011;6652;48.802;9.190;2023-04-05T08:39:40;14.45;;;5.47;;
13173;SDS011;6652;48.802;9.190;2023-04-05T08:42:07;10.82;;;6.25;;
13173;SDS011;6652;48.802;9.190;2023-04-05T08:44:40;12.15;;;5.43;;
13173;SDS011;6652;48.802;9.190;2023-04-05T08:47:09;11.23;;;5.70;;
13173;SDS011;6652;48.802;9.190;2023-04-05T08:49:42;15.80;;;5.25;;
13173;SDS011;6652;48.802;9.190;2023-04-05T08:52:09;7.95;;;4.93;;
13173;SDS011;6652;48.802;9.190;2023-04-05T08:54:36;8.07;;;4.75;;
13173;SDS011;6652;48.802;9.190;2023-04-05T08:57:04;7.03;;;4.68;;
13173;SDS011;6652;48.802;9.190;2023-04-05T08:59:32;9.20;;;5.18;;
13173;SDS011;6652;48.802;9.190;2023-04-05T09:02:03;10.38;;;4.50;;
13173;SDS011;6652;48.802;9.190;2023-04-05T09:04:34;9.30;;;4.93;;
13173;SDS011;6652;48.802;9.190;2023-04-05T09:07:03;11.05;;;5.38;;
13173;SDS011;6652;48.802;9.190;2023-04-05T09:09:34;8.80;;;4.68;;
13173;SDS011;6652;48.802;9.190;2023-04-05T09:12:02;6.15;;;4.05;;
13173;SDS011;6652;48.802;9.190;2023-04-05T09:14:32;6.15;;;3.72;;
13173;SDS011;6652;48.802;9.190;2023-04-05T09:17:00;5.72;;;3.75;;
13173;SDS011;6652;48.802;9.190;2023-04-05T09:19:28;5.93;;;3.90;;
13173;SDS011;6652;48.802;9.190;2023-04-05T09:21:58;7.15;;;4.35;;
13173;SDS011;6652;48.802;9.190;2023-04-05T09:24:29;11.68;;;5.45;;
13173;SDS011;6652;48.802;9.190;2023-04-05T09:27:02;6.05;;;3.67;;
13173;SDS011;6652;48.802;9.190;2023-04-05T09:29:31;7.63;;;3.88;;
13173;SDS011;6652;48.802;9.190;2023-04-05T09:31:59;6.43;;;3.97;;
13173;SDS011;6652;48.802;9.190;2023-04-05T09:34:26;8.43;;;4.10;;
13173;SDS011;6652;48.802;9.190;2023-04-05T09:36:56;7.85;;;3.95;;
13173;SDS011;6652;48.802;9.190;2023-04-05T09:39:26;8.95;;;3.55;;
13173;SDS011;6652;48.802;9.190;2023-04-05T09:42:08;7.40;;;3.70;;
13173;SDS011;6652;48.802;9.190;2023-04-05T09:47:59;6.22;;;3.45;;
13173;SDS011;6652;48.802;9.190;2023-04-05T09:50:40;4.57;;;3.35;;
13173;SDS011;6652;48.802;9.190;2023-04-05T09:53:07;6.50;;;3.38;;
13173;SDS011;6652;48.802;9.190;2023-04-05T09:55:39;6.20;;;3.15;;
13173;SDS011;6652;48.802;9.190;2023-04-05T09:58:11;5.20;;;3.22;;
13173;SDS011;6652;48.802;9.190;2023-04-05T10:00:38;9.18;;;3.67;;
13173;SDS011;6652;48.802;9.190;2023-04-05T10:03:17;9.75;;;3.95;;
13173;SDS011;6652;48.802;9.190;2023-04-05T10:05:43;9.10;;;4.00;;
13173;SDS011;6652;48.802;9.190;2023-04-05T10:08:12;8.50;;;3.80;;
13173;SDS011;6652;48.802;9.190;2023-04-05T10:10:44;11.85;;;3.85;;
13173;SDS011;6652;48.802;9.190;2023-04-05T10:13:14;6.85;;;4.22;;
13173;SDS011;6652;48.802;9.190;2023-04-05T10:15:43;9.60;;;4.28;;
13173;SDS011;6652;48.802;9.190;2023-04-05T10:18:26;7.75;;;3.50;;
13173;SDS011;6652;48.802;9.190;2023-04-05T10:21:03;7.82;;;3.65;;
13173;SDS011;6652;48.802;9.190;2023-04-05T10:23:33;9.30;;;4.13;;
13173;SDS011;6652;48.802;9.190;2023-04-05T10:26:09;8.38;;;3.65;;
13173;SDS011;6652;48.802;9.190;2023-04-05T10:28:50;9.35;;;3.83;;
13173;SDS011;6652;48.802;9.190;2023-04-05T10:31:23;6.25;;;3.75;;
13173;SDS011;6652;48.802;9.190;2023-04-05T10:33:52;7.20;;;3.83;;
13173;SDS011;6652;48.802;9.190;2023-04-05T10:36:31;7.72;;;3.60;;
13173;SDS011;6652;48.802;9.190;2023-04-05T10:39:10;6.07;;;4.22;;
13173;SDS011;6652;48.802;9.190;2023-04-05T10:41:40;4.90;;;3.67;;
13173;SDS011;6652;48.802;9.190;2023-04-05T10:44:10;9.13;;;3.92;;
13173;SDS011;6652;48.802;9.190;2023-04-05T10:46:39;5.55;;;3.80;;
13173;SDS011;6652;48.802;9.190;2023-04-05T10:49:07;7.50;;;4.07;;
13173;SDS011;6652;48.802;9.190;2023-04-05T10:51:41;6.72;;;3.67;;
13173;SDS011;6652;48.802;9.190;2023-04-05T10:54:10;8.55;;;4.13;;
13173;SDS011;6652;48.802;9.190;2023-04-05T10:56:37;10.52;;;4.43;;
13173;SDS011;6652;48.802;9.190;2023-04-05T10:59:05;8.25;;;4.30;;
13173;SDS011;6652;48.802;9.190;2023-04-05T11:01:34;7.63;;;4.32;;
13173;SDS011;6652;48.802;9.190;2023-04-05T11:04:09;9.18;;;4.03;;
13173;SDS011;6652;48.802;9.190;2023-04-05T11:06:36;10.55;;;3.97;;
13173;SDS011;6652;48.802;9.190;2023-04-05T11:09:08;7.30;;;4.20;;
13173;SDS011;6652;48.802;9.190;2023-04-05T11:11:39;6.38;;;4.22;;
13173;SDS011;6652;48.802;9.190;2023-04-05T11:14:17;13.77;;;4.30;;
13173;SDS011;6652;48.802;9.190;2023-04-05T11:16:47;6.75;;;3.50;;
13173;SDS011;6652;48.802;9.190;2023-04-05T11:19:17;7.80;;;4.20;;
13173;SDS011;6652;48.802;9.190;2023-04-05T11:21:44;10.20;;;4.07;;
13173;SDS011;6652;48.802;9.190;2023-04-05T11:24:11;7.55;;;3.67;;
13173;SDS011;6652;48.802;9.190;2023-04-05T11:26:53;7.07;;;4.25;;
13173;SDS011;6652;48.802;9.190;2023-04-05T11:32:16;5.72;;;4.00;;
13173;SDS011;6652;48.802;9.190;2023-04-05T11:34:43;9.18;;;3.85;;
13173;SDS011;6652;48.802;9.190;2023-04-05T11:37:10;7.75;;;4.22;;
13173;SDS011;6652;48.802;9.190;2023-04-05T11:39:40;6.10;;;4.05;;
13173;SDS011;6652;48.802;9.190;2023-04-05T11:42:08;5.80;;;4.20;;
13173;SDS011;6652;48.802;9.190;2023-04-05T11:44:38;8.50;;;4.15;;
13173;SDS011;6652;48.802;9.190;2023-04-05T11:47:06;8.35;;;4.22;;
13173;SDS011;6652;48.802;9.190;2023-04-05T11:49:36;4.90;;;3.67;;
13173;SDS011;6652;48.802;9.190;2023-04-05T11:52:11;7.32;;;3.80;;
13173;SDS011;6652;48.802;9.190;2023-04-05T11:54:39;6.80;;;3.50;;
13173;SDS011;6652;48.802;9.190;2023-04-05T11:57:13;9.38;;;4.05;;
13173;SDS011;6652;48.802;9.190;2023-04-05T11:59:43;4.97;;;3.45;;
13173;SDS011;6652;48.802;9.190;2023-04-05T12:02:10;6.70;;;3.25;;
13173;SDS011;6652;48.802;9.190;2023-04-05T12:04:39;7.85;;;4.13;;
13173;SDS011;6652;48.802;9.190;2023-04-05T12:07:09;7.40;;;3.72;;
13173;SDS011;6652;48.802;9.190;2023-04-05T12:12:25;5.45;;;3.35;;
13173;SDS011;6652;48.802;9.190;2023-04-05T12:14:57;9.55;;;3.70;;
13173;SDS011;6652;48.802;9.190;2023-04-05T12:17:41;6.70;;;3.53;;
13173;SDS011;6652;48.802;9.190;2023-04-05T12:20:11;7.40;;;4.00;;
13173;SDS011;6652;48.802;9.190;2023-04-05T12:22:40;7.57;;;3.83;;
13173;SDS011;6652;48.802;9.190;2023-04-05T12:25:08;6.78;;;3.90;;
13173;SDS011;6652;48.802;9.190;2023-04-05T12:27:35;6.13;;;3.88;;
13173;SDS011;6652;48.802;9.190;2023-04-05T12:30:04;5.55;;;3.50;;
13173;SDS011;6652;48.802;9.190;2023-04-05T12:32:34;8.13;;;4.53;;
13173;SDS011;6652;48.802;9.190;2023-04-05T12:35:04;8.43;;;3.72;;
13173;SDS011;6652;48.802;9.190;2023-04-05T12:37:34;7.18;;;3.70;;
13173;SDS011;6652;48.802;9.190;2023-04-05T12:40:01;7.50;;;4.47;;
13173;SDS011;6652;48.802;9.190;2023-04-05T12:42:30;5.35;;;3.78;;
13173;SDS011;6652;48.802;9.190;2023-04-05T12:45:03;7.78;;;4.28;;
13173;SDS011;6652;48.802;9.190;2023-04-05T12:47:31;7.95;;;3.55;;
13173;SDS011;6652;48.802;9.190;2023-04-05T12:50:09;6.50;;;3.80;;
13173;SDS011;6652;48.802;9.190;2023-04-05T12:52:51;8.63;;;3.92;;
13173;SDS011;6652;48.802;9.190;2023-04-05T12:55:18;6.80;;;3.80;;
13173;SDS011;6652;48.802;9.190;2023-04-05T12:57:47;9.68;;;3.95;;
13173;SDS011;6652;48.802;9.190;2023-04-05T13:00:15;8.85;;;4.30;;
13173;SDS011;6652;48.802;9.190;2023-04-05T13:02:47;8.90;;;4.15;;
13173;SDS011;6652;48.802;9.190;2023-04-05T13:05:15;7.43;;;3.92;;
13173;SDS011;6652;48.802;9.190;2023-04-05T13:07:42;7.00;;;3.97;;
13173;SDS011;6652;48.802;9.190;2023-04-05T13:10:10;7.80;;;4.13;;
13173;SDS011;6652;48.802;9.190;2023-04-05T13:12:37;7.80;;;4.05;;
13173;SDS011;6652;48.802;9.190;2023-04-05T13:15:04;6.63;;;4.22;;
13173;SDS011;6652;48.802;9.190;2023-04-05T13:17:32;9.00;;;4.43;;
13173;SDS011;6652;48.802;9.190;2023-04-05T13:19:59;9.63;;;4.53;;
13173;SDS011;6652;48.802;9.190;2023-04-05T13:22:26;11.65;;;4.28;;
13173;SDS011;6652;48.802;9.190;2023-04-05T13:24:53;8.55;;;4.15;;
13173;SDS011;6652;48.802;9.190;2023-04-05T13:27:21;6.60;;;3.88;;
13173;SDS011;6652;48.802;9.190;2023-04-05T13:29:48;12.88;;;5.75;;
13173;SDS011;6652;48.802;9.190;2023-04-05T13:32:14;8.32;;;4.50;;
13173;SDS011;6652;48.802;9.190;2023-04-05T13:34:41;8.80;;;3.83;;
13173;SDS011;6652;48.802;9.190;2023-04-05T13:37:08;10.18;;;4.65;;
13173;SDS011;6652;48.802;9.190;2023-04-05T13:39:35;7.25;;;4.43;;
13173;SDS011;6652;48.802;9.190;2023-04-05T13:42:02;7.22;;;4.20;;
13173;SDS011;6652;48.802;9.190;2023-04-05T13:44:30;11.80;;;4.40;;
13173;SDS011;6652;48.802;9.190;2023-04-05T13:46:57;9.27;;;4.50;;
13173;SDS011;6652;48.802;9.190;2023-04-05T13:49:24;7.35;;;4.10;;
13173;SDS011;6652;48.802;9.190;2023-04-05T13:51:51;7.57;;;4.40;;
13173;SDS011;6652;48.802;9.190;2023-04-05T13:54:18;8.40;;;4.50;;
13173;SDS011;6652;48.802;9.190;2023-04-05T13:56:45;14.60;;;4.32;;
13173;SDS011;6652;48.802;9.190;2023-04-05T13:59:12;9.75;;;4.32;;
13173;SDS011;6652;48.802;9.190;2023-04-05T14:01:42;8.40;;;4.00;;
13173;SDS011;6652;48.802;9.190;2023-04-05T14:04:09;6.40;;;3.78;;
13173;SDS011;6652;48.802;9.190;2023-04-05T14:06:36;12.80;;;4.22;;
13173;SDS011;6652;48.802;9.190;2023-04-05T14:09:03;9.63;;;4.05;;
13173;SDS011;6652;48.802;9.190;2023-04-05T14:11:30;6.70;;;3.90;;
13173;SDS011;6652;48.802;9.190;2023-04-05T14:13:57;11.63;;;4.20;;
13173;SDS011;6652;48.802;9.190;2023-04-05T14:16:24;8.48;;;3.83;;
13173;SDS011;6652;48.802;9.190;2023-04-05T14:18:53;5.22;;;4.00;;
13173;SDS011;6652;48.802;9.190;2023-04-05T14:21:20;8.50;;;4.55;;
13173;SDS011;6652;48.802;9.190;2023-04-05T14:23:47;9.52;;;4.38;;
13173;SDS011;6652;48.802;9.190;2023-04-05T14:26:17;5.18;;;3.97;;
13173;SDS011;6652;48.802;9.190;2023-04-05T14:28:44;6.88;;;4.15;;
13173;SDS011;6652;48.802;9.190;2023-04-05T14:31:11;9.38;;;4.22;;
13173;SDS011;6652;48.802;9.190;2023-04-05T14:33:38;9.48;;;4.18;;
13173;SDS011;6652;48.802;9.190;2023-04-05T14:36:07;6.50;;;4.15;;
13173;SDS011;6652;48.802;9.190;2023-04-05T14:38:34;9.43;;;4.18;;
13173;SDS011;6652;48.802;9.190;2023-04-05T14:41:01;9.68;;;4.55;;
13173;SDS011;6652;48.802;9.190;2023-04-05T14:43:30;7.88;;;4.47;;
13173;SDS011;6652;48.802;9.190;2023-04-05T14:45:57;12.38;;;4.80;;
13173;SDS011;6652;48.802;9.190;2023-04-05T14:48:24;5.47;;;3.90;;
13173;SDS011;6652;48.802;9.190;2023-04-05T14:50:52;8.18;;;3.85;;
13173;SDS011;6652;48.802;9.190;2023-04-05T14:53:20;7.53;;;4.35;;
13173;SDS011;6652;48.802;9.190;2023-04-05T14:55:47;9.00;;;3.92;;
13173;SDS011;6652;48.802;9.190;2023-04-05T14:58:14;10.27;;;4.47;;
13173;SDS011;6652;48.802;9.190;2023-04-05T15:00:41;6.72;;;3.78;;
13173;SDS011;6652;48.802;9.190;2023-04-05T15:03:08;10.05;;;4.25;;
13173;SDS011;6652;48.802;9.190;2023-04-05T15:05:35;7.18;;;4.13;;
13173;SDS011;6652;48.802;9.190;2023-04-05T15:08:02;5.43;;;3.90;;
13173;SDS011;6652;48.802;9.190;2023-04-05T15:10:31;6.65;;;3.78;;
13173;SDS011;6652;48.802;9.190;2023-04-05T15:12:58;7.82;;;3.60;;
13173;SDS011;6652;48.802;9.190;2023-04-05T15:15:25;10.50;;;4.00;;
13173;SDS011;6652;48.802;9.190;2023-04-05T15:17:52;6.32;;;3.80;;
13173;SDS011;6652;48.802;9.190;2023-04-05T15:20:19;7.55;;;4.05;;